createdAt,value
2022-11-28T00:01:30.430Z,4.53
2022-11-28T00:04:03.964Z,3.80
2022-11-28T00:06:39.938Z,4.28
2022-11-28T00:09:07.559Z,3.72
2022-11-28T00:11:38.128Z,6.32
2022-11-28T00:14:04.668Z,4.20
2022-11-28T00:16:33.559Z,4.30
2022-11-28T00:19:05.104Z,4.07
2022-11-28T00:21:36.217Z,3.85
2022-11-28T00:24:10.740Z,3.55
2022-11-28T00:26:40.045Z,3.97
2022-11-28T00:29:08.452Z,3.63
2022-11-28T00:31:42.763Z,4.82
2022-11-28T00:34:11.572Z,3.80
2022-11-28T00:36:38.170Z,3.65
2022-11-28T00:39:05.569Z,4.03
2022-11-28T00:41:34.922Z,3.63
2022-11-28T00:44:01.420Z,3.35
2022-11-28T00:46:27.992Z,4.60
2022-11-28T00:48:54.433Z,3.80
2022-11-28T00:51:23.990Z,4.20
2022-11-28T00:53:52.161Z,3.80
2022-11-28T00:56:24.277Z,4.70
2022-11-28T00:58:51.511Z,4.82
2022-11-28T01:01:30.277Z,4.20
2022-11-28T01:03:58.857Z,3.45
2022-11-28T01:06:28.791Z,3.77
2022-11-28T01:08:55.804Z,4.07
2022-11-28T01:11:22.850Z,3.95
2022-11-28T01:13:49.564Z,3.72
2022-11-28T01:16:16.485Z,2.60
2022-11-28T01:18:43.039Z,3.97
2022-11-28T01:21:09.545Z,2.85
2022-11-28T01:23:36.560Z,3.45
2022-11-28T01:26:05.295Z,3.40
2022-11-28T01:28:31.868Z,3.53
2022-11-28T01:31:06.610Z,3.07
2022-11-28T01:33:33.360Z,2.80
2022-11-28T01:36:00.425Z,3.13
2022-11-28T01:38:27.674Z,3.15
2022-11-28T01:40:55.315Z,2.80
2022-11-28T01:43:23.244Z,2.70
2022-11-28T01:45:50.437Z,2.75
2022-11-28T01:48:34.398Z,2.83
2022-11-28T01:51:05.991Z,2.80
2022-11-28T01:53:36.498Z,3.10
2022-11-28T01:56:08.222Z,3.47
2022-11-28T01:58:39.656Z,3.40
2022-11-28T02:01:07.119Z,3.10
2022-11-28T02:03:46.485Z,2.65
2022-11-28T02:06:16.048Z,3.45
2022-11-28T02:08:42.942Z,3.00
2022-11-28T02:11:36.911Z,2.47
2022-11-28T02:14:03.318Z,3.33
2022-11-28T02:16:49.014Z,2.50
2022-11-28T02:19:34.203Z,3.03
2022-11-28T02:22:16.317Z,2.73
2022-11-28T02:24:45.703Z,3.15
2022-11-28T02:27:32.245Z,3.47
2022-11-28T02:30:08.918Z,3.22
2022-11-28T02:32:38.173Z,3.03
2022-11-28T02:35:29.123Z,2.60
2022-11-28T02:38:19.169Z,3.08
2022-11-28T02:41:12.799Z,3.63
2022-11-28T02:44:04.717Z,2.60
2022-11-28T02:46:37.956Z,2.97
2022-11-28T02:49:12.525Z,2.87
2022-11-28T02:51:47.699Z,3.03
2022-11-28T02:54:17.707Z,3.00
2022-11-28T02:56:53.004Z,2.47
2022-11-28T02:59:25.488Z,3.20
2022-11-28T03:01:52.028Z,2.30
2022-11-28T03:04:18.485Z,2.58
2022-11-28T03:07:09.170Z,3.08
2022-11-28T03:09:57.008Z,2.67
2022-11-28T03:12:29.581Z,2.03
2022-11-28T03:14:59.542Z,2.03
2022-11-28T03:17:50.224Z,2.55
2022-11-28T03:20:46.820Z,3.38
2022-11-28T03:23:42.330Z,2.75
2022-11-28T03:27:00.242Z,2.58
2022-11-28T03:29:34.629Z,2.70
2022-11-28T03:32:08.009Z,2.72
2022-11-28T03:34:39.535Z,2.17
2022-11-28T03:37:14.429Z,2.35
2022-11-28T03:39:46.776Z,1.85
2022-11-28T03:42:21.001Z,2.20
2022-11-28T03:45:03.278Z,2.63
2022-11-28T03:47:41.350Z,2.42
2022-11-28T03:50:15.822Z,1.95
2022-11-28T03:52:49.285Z,1.92
2022-11-28T03:55:28.281Z,1.93
2022-11-28T03:58:00.359Z,3.13
2022-11-28T04:00:27.114Z,2.58
2022-11-28T04:03:11.925Z,1.98
2022-11-28T04:05:54.003Z,1.60
2022-11-28T04:08:29.518Z,1.97
2022-11-28T04:11:20.926Z,1.92
2022-11-28T04:13:59.544Z,2.15
2022-11-28T04:16:36.018Z,2.15
2022-11-28T04:19:10.869Z,1.95
2022-11-28T04:21:44.495Z,1.80
2022-11-28T04:24:17.840Z,2.03
2022-11-28T04:27:08.070Z,2.42
2022-11-28T04:29:39.400Z,2.17
2022-11-28T04:32:07.938Z,1.75
2022-11-28T04:34:35.828Z,1.70
2022-11-28T04:37:09.560Z,1.65
2022-11-28T04:39:40.795Z,1.95
2022-11-28T04:42:17.981Z,1.85
2022-11-28T04:44:56.844Z,1.63
2022-11-28T04:47:25.037Z,2.33
2022-11-28T04:49:53.282Z,1.17
2022-11-28T04:52:31.583Z,1.67
2022-11-28T04:55:27.405Z,1.67
2022-11-28T04:58:02.683Z,1.50
2022-11-28T05:00:29.373Z,1.37
2022-11-28T05:02:56.661Z,1.60
2022-11-28T05:05:26.147Z,1.30
2022-11-28T05:07:53.274Z,1.48
2022-11-28T05:10:20.429Z,1.67
2022-11-28T05:12:46.999Z,3.10
2022-11-28T05:15:18.899Z,1.77
2022-11-28T05:17:46.923Z,1.85
2022-11-28T05:20:14.253Z,1.27
2022-11-28T05:22:40.738Z,1.60
2022-11-28T05:25:07.451Z,1.17
2022-11-28T05:27:33.909Z,0.70
2022-11-28T05:30:00.428Z,1.35
2022-11-28T05:32:30.304Z,1.55
2022-11-28T05:34:57.300Z,1.40
2022-11-28T05:37:25.295Z,1.50
2022-11-28T05:39:52.129Z,1.20
2022-11-28T05:42:18.663Z,1.70
2022-11-28T05:44:45.216Z,1.42
2022-11-28T05:47:11.693Z,1.70
2022-11-28T05:49:38.123Z,2.27
2022-11-28T05:52:04.762Z,1.67
2022-11-28T05:54:31.602Z,1.95
2022-11-28T05:56:58.394Z,5.68
2022-11-28T05:59:25.019Z,3.95
2022-11-28T06:01:51.582Z,3.20
2022-11-28T06:04:18.196Z,3.63
2022-11-28T06:06:45.175Z,3.22
2022-11-28T06:09:11.656Z,4.72
2022-11-28T06:11:38.517Z,8.95
2022-11-28T06:14:05.023Z,6.57
2022-11-28T06:16:31.943Z,4.40
2022-11-28T06:19:00.760Z,3.63
2022-11-28T06:21:28.863Z,2.25
2022-11-28T06:23:57.020Z,1.85
2022-11-28T06:26:24.645Z,1.77
2022-11-28T06:28:51.664Z,1.98
2022-11-28T06:31:21.197Z,1.85
2022-11-28T06:33:48.477Z,2.08
2022-11-28T06:36:16.544Z,1.67
2022-11-28T06:38:43.123Z,1.63
2022-11-28T06:41:12.473Z,1.55
2022-11-28T06:43:39.260Z,2.22
2022-11-28T06:46:06.411Z,1.83
2022-11-28T06:48:32.900Z,1.80
2022-11-28T06:51:07.025Z,1.60
2022-11-28T06:53:34.573Z,1.65
2022-11-28T06:56:09.607Z,2.60
2022-11-28T06:58:36.451Z,2.60
2022-11-28T07:01:12.370Z,2.50
2022-11-28T07:03:39.558Z,2.07
2022-11-28T07:06:06.836Z,1.88
2022-11-28T07:08:33.793Z,1.77
2022-11-28T07:11:17.851Z,2.40
2022-11-28T07:13:45.975Z,1.80
2022-11-28T07:16:21.826Z,1.73
2022-11-28T07:18:48.864Z,1.95
2022-11-28T07:21:15.939Z,2.20
2022-11-28T07:23:43.483Z,1.60
2022-11-28T07:26:11.587Z,1.70
2022-11-28T07:28:38.441Z,1.13
2022-11-28T07:31:08.046Z,1.75
2022-11-28T07:33:35.186Z,1.70
2022-11-28T07:36:07.712Z,2.28
2022-11-28T07:38:34.432Z,2.05
2022-11-28T07:41:09.537Z,2.37
2022-11-28T07:43:36.470Z,2.00
2022-11-28T07:46:06.080Z,2.33
2022-11-28T07:48:32.809Z,2.08
2022-11-28T07:50:59.414Z,1.83
2022-11-28T07:53:25.910Z,2.00
2022-11-28T07:55:52.580Z,1.85
2022-11-28T07:58:21.652Z,1.80
2022-11-28T08:00:48.665Z,2.55
2022-11-28T08:03:15.206Z,2.22
2022-11-28T08:05:43.281Z,2.37
2022-11-28T08:08:09.741Z,2.30
2022-11-28T08:10:36.237Z,2.30
2022-11-28T08:13:02.828Z,2.40
2022-11-28T08:15:31.694Z,2.33
2022-11-28T08:17:58.193Z,2.30
2022-11-28T08:20:24.778Z,2.25
2022-11-28T08:22:51.395Z,2.97
2022-11-28T08:25:17.951Z,2.67
2022-11-28T08:27:44.786Z,2.65
2022-11-28T08:30:11.690Z,2.27
2022-11-28T08:32:38.134Z,2.70
2022-11-28T08:35:05.152Z,3.15
2022-11-28T08:37:31.634Z,3.63
2022-11-28T08:39:58.135Z,3.28
2022-11-28T08:42:24.627Z,3.20
2022-11-28T08:44:51.060Z,3.70
2022-11-28T08:47:17.589Z,2.28
2022-11-28T08:49:44.557Z,2.85
2022-11-28T08:52:11.290Z,2.90
2022-11-28T08:54:37.874Z,3.57
2022-11-28T08:57:04.421Z,3.25
2022-11-28T08:59:30.866Z,2.42
2022-11-28T09:01:57.564Z,3.83
2022-11-28T09:04:24.233Z,2.50
2022-11-28T09:06:51.677Z,3.27
2022-11-28T09:09:18.799Z,2.60
2022-11-28T09:11:45.471Z,2.58
2022-11-28T09:14:12.015Z,3.88
2022-11-28T09:16:41.457Z,3.05
2022-11-28T09:19:10.596Z,3.03
2022-11-28T09:21:37.676Z,3.67
2022-11-28T09:24:04.580Z,3.80
2022-11-28T09:26:31.083Z,2.67
2022-11-28T09:28:57.540Z,2.88
2022-11-28T09:31:24.231Z,2.40
2022-11-28T09:33:50.970Z,2.30
2022-11-28T09:36:20.116Z,2.58
2022-11-28T09:38:47.191Z,2.92
2022-11-28T09:41:44.762Z,2.42
2022-11-28T09:44:14.152Z,2.57
2022-11-28T09:46:42.363Z,2.25
2022-11-28T09:49:40.297Z,1.83
2022-11-28T09:52:17.757Z,1.73
2022-11-28T09:54:51.041Z,2.95
2022-11-28T09:57:40.224Z,1.53
2022-11-28T10:00:16.862Z,1.60
2022-11-28T10:02:56.769Z,2.20
2022-11-28T10:05:31.252Z,1.60
2022-11-28T10:08:05.607Z,1.45
2022-11-28T10:11:04.480Z,2.30
2022-11-28T10:14:07.796Z,1.60
2022-11-28T10:17:02.095Z,1.50
2022-11-28T10:19:54.413Z,1.30
2022-11-28T10:22:43.355Z,1.42
2022-11-28T10:25:18.885Z,0.97
2022-11-28T10:27:47.504Z,0.77
2022-11-28T10:30:33.658Z,0.80
2022-11-28T10:33:18.100Z,0.60
2022-11-28T10:35:50.888Z,0.98
2022-11-28T10:38:17.765Z,0.90
2022-11-28T10:40:51.307Z,0.88
2022-11-28T10:43:20.813Z,1.15
2022-11-28T10:46:18.911Z,0.80
2022-11-28T10:48:54.980Z,0.57
2022-11-28T10:51:24.543Z,0.60
2022-11-28T10:53:59.330Z,0.85
2022-11-28T10:56:55.239Z,0.70
2022-11-28T10:59:52.663Z,0.98
2022-11-28T11:02:43.379Z,0.90
2022-11-28T11:05:19.354Z,0.60
2022-11-28T11:08:04.663Z,0.52
2022-11-28T11:10:51.817Z,0.40
2022-11-28T11:13:30.072Z,0.65
2022-11-28T11:16:03.184Z,0.73
2022-11-28T11:18:37.877Z,0.43
2022-11-28T11:21:08.858Z,0.35
2022-11-28T11:23:38.481Z,0.95
2022-11-28T11:26:10.152Z,0.50
2022-11-28T11:28:43.942Z,0.45
2022-11-28T11:31:24.820Z,0.77
2022-11-28T11:34:15.613Z,0.60
2022-11-28T11:36:42.217Z,0.30
2022-11-28T11:39:11.906Z,0.73
2022-11-28T11:41:47.162Z,0.60
2022-11-28T11:44:13.708Z,0.50
2022-11-28T11:46:58.276Z,0.50
2022-11-28T11:49:27.768Z,0.57
2022-11-28T11:52:00.226Z,0.28
2022-11-28T11:54:27.198Z,0.93
2022-11-28T11:57:11.160Z,0.77
2022-11-28T11:59:48.322Z,0.28
2022-11-28T12:02:52.029Z,0.60
2022-11-28T12:06:06.111Z,0.30
2022-11-28T12:08:35.951Z,0.40
2022-11-28T12:11:15.505Z,0.50
2022-11-28T12:13:42.684Z,0.75
2022-11-28T12:16:31.837Z,0.60
2022-11-28T12:19:16.781Z,0.45
2022-11-28T12:22:12.249Z,0.70
2022-11-28T12:24:52.365Z,0.50
2022-11-28T12:27:42.015Z,0.40
2022-11-28T12:30:20.885Z,0.60
2022-11-28T12:33:02.221Z,0.40
2022-11-28T12:35:43.665Z,0.50
2022-11-28T12:38:36.322Z,0.37
2022-11-28T12:41:21.320Z,0.52
2022-11-28T12:44:23.410Z,0.50
2022-11-28T12:47:15.828Z,0.50
2022-11-28T12:50:08.430Z,0.65
2022-11-28T12:52:53.619Z,0.90
2022-11-28T12:55:35.268Z,2.88
2022-11-28T12:58:22.730Z,2.78
2022-11-28T13:01:14.299Z,2.00
2022-11-28T13:04:18.448Z,2.47
2022-11-28T13:07:00.388Z,2.17
2022-11-28T13:09:37.178Z,2.55
2022-11-28T13:12:25.089Z,3.28
2022-11-28T13:14:57.302Z,5.38
2022-11-28T13:17:49.284Z,5.75
2022-11-28T13:20:29.799Z,5.67
2022-11-28T13:23:24.718Z,4.28
2022-11-28T13:26:35.350Z,3.53
2022-11-28T13:29:23.876Z,4.63
2022-11-28T13:32:04.359Z,3.70
2022-11-28T13:34:31.605Z,4.03
2022-11-28T13:40:31.469Z,2.15
2022-11-28T13:43:08.604Z,2.58
2022-11-28T13:45:42.412Z,3.22
2022-11-28T13:48:57.598Z,1.80
2022-11-28T13:51:32.048Z,1.40
2022-11-28T13:54:17.376Z,1.35
2022-11-28T13:56:48.041Z,1.20
2022-11-28T13:59:25.290Z,1.30
2022-11-28T14:02:01.522Z,1.00
2022-11-28T14:04:30.026Z,1.20
2022-11-28T14:07:04.144Z,1.40
2022-11-28T14:09:33.322Z,0.80
2022-11-28T14:12:18.542Z,1.45
2022-11-28T14:15:07.264Z,1.97
2022-11-28T14:17:57.364Z,1.20
2022-11-28T14:20:45.455Z,1.73
2022-11-28T14:23:17.880Z,1.23
2022-11-28T14:25:49.885Z,0.80
2022-11-28T14:28:20.342Z,1.03
2022-11-28T14:30:48.321Z,1.27
2022-11-28T14:33:31.676Z,1.50
2022-11-28T14:35:58.055Z,1.58
2022-11-28T14:38:30.464Z,1.50
2022-11-28T14:40:56.997Z,1.10
2022-11-28T14:43:27.765Z,1.15
2022-11-28T14:46:16.192Z,1.02
2022-11-28T14:49:02.754Z,1.02
2022-11-28T14:52:30.705Z,1.60
2022-11-28T14:54:53.630Z,2.67
2022-11-28T14:57:55.277Z,2.35
2022-11-28T15:00:26.607Z,3.20
2022-11-28T15:03:32.317Z,2.60
2022-11-28T15:06:17.916Z,3.10
2022-11-28T15:08:56.819Z,2.17
2022-11-28T15:11:32.493Z,2.28
2022-11-28T15:14:31.636Z,1.90
2022-11-28T15:17:03.853Z,1.90
2022-11-28T15:19:53.978Z,1.50
2022-11-28T15:22:39.791Z,1.70
2022-11-28T15:25:29.309Z,1.33
2022-11-28T15:27:56.816Z,1.90
2022-11-28T15:30:26.550Z,1.70
2022-11-28T15:32:59.844Z,0.90
2022-11-28T15:35:27.597Z,0.80
2022-11-28T15:37:57.222Z,0.43
2022-11-28T15:40:35.177Z,0.20
2022-11-28T15:43:08.099Z,0.10
2022-11-28T15:45:42.238Z,0.40
2022-11-28T15:48:39.294Z,0.10
2022-11-28T15:51:09.574Z,0.10
2022-11-28T15:53:42.355Z,0.10
2022-11-28T15:56:15.865Z,0.20
2022-11-28T15:58:44.348Z,0.20
2022-11-28T16:01:16.733Z,0.40
2022-11-28T16:04:13.408Z,0.47
2022-11-28T16:06:42.938Z,0.70
2022-11-28T16:09:18.520Z,0.80
2022-11-28T16:11:51.513Z,0.90
2022-11-28T16:14:24.028Z,1.40
2022-11-28T16:16:50.611Z,1.00
2022-11-28T16:19:31.946Z,1.42
2022-11-28T16:22:08.899Z,1.30
2022-11-28T16:24:46.898Z,1.35
2022-11-28T16:27:34.943Z,1.33
2022-11-28T16:30:04.341Z,1.95
2022-11-28T16:32:39.028Z,1.92
2022-11-28T16:35:12.473Z,1.73
2022-11-28T16:37:39.431Z,1.75
2022-11-28T16:40:15.375Z,2.10
2022-11-28T16:42:42.196Z,2.08
2022-11-28T16:45:09.854Z,1.83
2022-11-28T16:47:37.231Z,2.50
2022-11-28T16:50:15.366Z,2.38
2022-11-28T16:52:58.531Z,2.73
2022-11-28T16:55:37.336Z,2.60
2022-11-28T16:58:15.796Z,3.40
2022-11-28T17:00:47.683Z,3.13
2022-11-28T17:03:40.806Z,3.42
2022-11-28T17:06:26.814Z,3.00
2022-11-28T17:08:53.286Z,3.42
2022-11-28T17:11:23.262Z,6.20
2022-11-28T17:13:49.922Z,5.20
2022-11-28T17:16:22.457Z,6.22
2022-11-28T17:18:49.685Z,3.67
2022-11-28T17:21:18.758Z,4.30
2022-11-28T17:23:45.395Z,4.03
2022-11-28T17:26:11.896Z,4.60
2022-11-28T17:28:38.564Z,4.78
2022-11-28T17:31:05.363Z,4.63
2022-11-28T17:33:31.869Z,4.50
2022-11-28T17:35:59.301Z,4.55
2022-11-28T17:38:26.128Z,4.25
2022-11-28T17:40:52.761Z,5.60
2022-11-28T17:43:21.514Z,5.83
2022-11-28T17:45:50.545Z,6.05
2022-11-28T17:48:18.003Z,6.13
2022-11-28T17:50:46.995Z,6.22
2022-11-28T17:53:16.882Z,6.45
2022-11-28T17:55:47.043Z,6.23
2022-11-28T17:58:19.331Z,6.57
2022-11-28T18:00:46.982Z,6.13
2022-11-28T18:03:15.031Z,7.05
2022-11-28T18:05:47.227Z,6.97
2022-11-28T18:08:19.245Z,7.67
2022-11-28T18:10:48.429Z,7.47
2022-11-28T18:13:16.652Z,7.93
2022-11-28T18:15:44.967Z,7.10
2022-11-28T18:18:11.712Z,7.97
2022-11-28T18:20:38.260Z,7.40
2022-11-28T18:23:04.839Z,6.50
2022-11-28T18:25:31.308Z,8.07
2022-11-28T18:27:57.781Z,7.88
2022-11-28T18:30:24.220Z,8.00
2022-11-28T18:32:50.695Z,7.17
2022-11-28T18:35:17.430Z,7.72
2022-11-28T18:37:43.963Z,7.75
2022-11-28T18:40:10.700Z,8.70
2022-11-28T18:42:37.213Z,8.93
2022-11-28T18:45:04.040Z,9.20
2022-11-28T18:47:30.520Z,9.93
2022-11-28T18:49:57.033Z,9.40
2022-11-28T18:52:23.564Z,11.00
2022-11-28T18:54:50.089Z,13.18
2022-11-28T18:57:16.619Z,11.33
2022-11-28T18:59:47.940Z,11.55
2022-11-28T19:02:18.079Z,12.27
2022-11-28T19:04:44.556Z,11.60
2022-11-28T19:07:11.393Z,12.43
2022-11-28T19:09:38.103Z,12.07
2022-11-28T19:12:04.715Z,13.77
2022-11-28T19:14:31.318Z,13.55
2022-11-28T19:16:58.083Z,13.13
2022-11-28T19:19:24.572Z,13.27
2022-11-28T19:21:51.075Z,12.13
2022-11-28T19:24:17.601Z,11.50
2022-11-28T19:26:44.088Z,10.90
2022-11-28T19:29:11.249Z,9.57
2022-11-28T19:31:38.893Z,12.77
2022-11-28T19:34:08.421Z,11.33
2022-11-28T19:36:37.645Z,11.30
2022-11-28T19:39:04.973Z,11.00
2022-11-28T19:41:32.451Z,10.25
2022-11-28T19:43:59.418Z,9.57
2022-11-28T19:46:29.162Z,8.60
2022-11-28T19:48:58.698Z,8.50
2022-11-28T19:51:25.219Z,9.00
2022-11-28T19:53:51.839Z,8.82
2022-11-28T19:56:22.774Z,8.98
2022-11-28T19:58:49.386Z,7.50
2022-11-28T20:01:19.052Z,7.57
2022-11-28T20:03:47.824Z,7.47
2022-11-28T20:06:25.287Z,7.20
2022-11-28T20:08:53.314Z,7.35
2022-11-28T20:11:28.512Z,7.83
2022-11-28T20:14:11.222Z,7.30
2022-11-28T20:16:38.223Z,7.72
2022-11-28T20:19:06.361Z,7.30
2022-11-28T20:21:34.011Z,9.35
2022-11-28T20:24:04.832Z,8.93
2022-11-28T20:26:34.872Z,8.40
2022-11-28T20:29:01.363Z,8.63
2022-11-28T20:31:30.827Z,8.00
2022-11-28T20:33:58.492Z,8.00
2022-11-28T20:36:26.842Z,7.70
2022-11-28T20:38:54.947Z,8.88
2022-11-28T20:41:22.963Z,9.82
2022-11-28T20:43:50.252Z,9.20
2022-11-28T20:46:22.332Z,8.80
2022-11-28T20:48:49.705Z,8.47
2022-11-28T20:51:19.575Z,8.73
2022-11-28T20:53:46.124Z,9.15
2022-11-28T20:56:15.861Z,9.75
2022-11-28T20:58:42.919Z,10.57
2022-11-28T21:01:15.783Z,10.67
2022-11-28T21:03:43.207Z,9.25
2022-11-28T21:06:09.992Z,10.18
2022-11-28T21:08:37.210Z,10.27
2022-11-28T21:11:08.730Z,10.35
2022-11-28T21:13:35.364Z,10.60
2022-11-28T21:16:12.035Z,11.25
2022-11-28T21:18:40.274Z,11.90
2022-11-28T21:21:13.107Z,11.60
2022-11-28T21:23:40.087Z,11.93
2022-11-28T21:26:09.203Z,11.07
2022-11-28T21:28:37.759Z,10.82
2022-11-28T21:31:06.935Z,11.63
2022-11-28T21:33:33.683Z,11.55
2022-11-28T21:36:02.771Z,10.38
2022-11-28T21:38:30.591Z,10.80
2022-11-28T21:40:57.545Z,10.48
2022-11-28T21:43:24.506Z,11.25
2022-11-28T21:45:51.433Z,10.52
2022-11-28T21:48:17.924Z,10.82
2022-11-28T21:50:51.019Z,9.17
2022-11-28T21:53:18.075Z,10.00
2022-11-28T21:55:44.877Z,10.43
2022-11-28T21:58:11.350Z,10.90
2022-11-28T22:00:53.111Z,10.18
2022-11-28T22:03:22.267Z,9.77
2022-11-28T22:05:48.742Z,10.75
2022-11-28T22:08:15.268Z,10.80
2022-11-28T22:10:41.723Z,10.38
2022-11-28T22:13:08.158Z,12.05
2022-11-28T22:15:34.598Z,10.07
2022-11-28T22:18:01.030Z,10.23
2022-11-28T22:20:27.567Z,10.32
2022-11-28T22:22:54.022Z,9.48
2022-11-28T22:25:20.449Z,10.18
2022-11-28T22:27:46.894Z,10.33
2022-11-28T22:30:13.579Z,9.68
2022-11-28T22:32:40.167Z,10.25
2022-11-28T22:35:09.200Z,11.55
2022-11-28T22:37:36.568Z,11.70
2022-11-28T22:40:04.218Z,10.53
2022-11-28T22:42:30.683Z,10.52
2022-11-28T22:44:57.169Z,9.98
2022-11-28T22:47:23.697Z,11.60
2022-11-28T22:49:50.166Z,11.25
2022-11-28T22:52:16.904Z,12.27
2022-11-28T22:54:43.807Z,11.05
2022-11-28T22:57:10.553Z,11.35
2022-11-28T22:59:38.561Z,11.80
2022-11-28T23:02:05.329Z,11.85
2022-11-28T23:04:31.949Z,11.10
2022-11-28T23:06:58.415Z,10.13
2022-11-28T23:09:24.933Z,11.20
2022-11-28T23:11:51.445Z,11.10
2022-11-28T23:14:17.936Z,10.60
2022-11-28T23:16:44.936Z,10.80
2022-11-28T23:19:14.365Z,10.05
2022-11-28T23:21:43.382Z,10.60
2022-11-28T23:24:14.120Z,9.90
2022-11-28T23:26:40.638Z,10.23
2022-11-28T23:29:07.234Z,10.03
2022-11-28T23:31:36.715Z,10.00
2022-11-28T23:34:03.387Z,9.82
2022-11-28T23:36:31.106Z,9.57
2022-11-28T23:39:00.815Z,9.52
2022-11-28T23:41:28.728Z,9.43
2022-11-28T23:43:55.927Z,8.95
2022-11-28T23:46:23.646Z,9.93
2022-11-28T23:48:50.763Z,8.43
2022-11-28T23:51:19.731Z,9.55
2022-11-28T23:53:46.422Z,9.23
2022-11-28T23:56:15.396Z,8.98
2022-11-28T23:58:42.657Z,8.70
